Terminal Aerodrome Forecast
Issued by NWS

Home | Current Version | Previous Version | Text Only | Print | Product List | Glossary On
Versions: 1 2 3 4 5 6 7 8 9 10 11 12 13 14 15
000
FTUS43 KIND 121700
TAFHUF
TAF
KHUF 121730Z 1218/1318 17007KT 6SM BR VCSH SCT015 BKN050
     FM122000 19010KT P6SM SCT050 BKN100
     FM130200 20007KT P6SM SCT100 BKN250
     FM130900 21019KT P6SM SCT050 BKN250 PROB30 1314/1318 3SM TSRA
      OVC012CB=

USA.gov is the U.S. government's official web portal to all federal, state and local government web resources and services.